Portada
METAR-TAF:

METAR-TAF

Aeropuertos :

Jendouba, Túnez

latitud: 36-29N, longitud: 008-48E, altitud: 143 m

Observación

El informe se hizo hace 24 minutos, a las 11:00 UTC
Viento 3 kt del oeste
Temperatura 16°C
Humedad 55%
Presión 1027 hPa
Visibilidad 10 km o más
Nubes dispersas a una altura de 2000 ft
Nubes dispersas a una altura de 3000 ft

METAR: DTTN 201100Z 27003KT 9999 SCT020 SCT030 16/07 Q1027

Hora: 12:24 (11:24 UTC)


TAF: falta

Observaciones y pronósticos meteorológicos de más de 4000 aeropuertos (mensajes METAR y TAF).

Los puntos amarillos y rojos representan las estaciones disponibles.

Ponga el ratón en el punto deseado para ver el nombre de la estación.

Haga clic para ver las observaciones y los pronósticos meteorológicos.

Para cambiar el mapa : haga clic en los botones verdes con una cruz de color negro para hacer un zoom, en el botón verde con un guión para alejar o en las flechas verdes para mapas adyacentes.


METAR-TAF: